sensor_id;sensor_type;location;lat;lon;timestamp;pressure;altitude;pressure_sealevel;temperature;humidity
62436;BME280;48480;50.252;18.848;2024-02-14T00:02:12;99176.90;;;3.65;78.81
62436;BME280;48480;50.252;18.848;2024-02-14T00:04:56;99176.59;;;3.60;78.87
62436;BME280;48480;50.252;18.848;2024-02-14T00:07:40;99174.25;;;3.54;78.91
62436;BME280;48480;50.252;18.848;2024-02-14T00:10:24;99180.98;;;3.47;79.15
62436;BME280;48480;50.252;18.848;2024-02-14T00:13:08;99184.36;;;3.41;79.41
62436;BME280;48480;50.252;18.848;2024-02-14T00:15:53;99182.88;;;3.35;79.40
62436;BME280;48480;50.252;18.848;2024-02-14T00:18:37;99184.89;;;3.34;79.58
62436;BME280;48480;50.252;18.848;2024-02-14T00:21:21;99186.87;;;3.36;79.69
62436;BME280;48480;50.252;18.848;2024-02-14T00:24:10;99184.56;;;3.38;79.83
62436;BME280;48480;50.252;18.848;2024-02-14T00:26:56;99183.13;;;3.39;79.77
62436;BME280;48480;50.252;18.848;2024-02-14T00:29:44;99187.33;;;3.39;79.97
62436;BME280;48480;50.252;18.848;2024-02-14T00:32:31;99189.73;;;3.37;79.98
62436;BME280;48480;50.252;18.848;2024-02-14T00:35:14;99193.04;;;3.33;80.21
62436;BME280;48480;50.252;18.848;2024-02-14T00:37:59;99196.96;;;3.28;80.22
62436;BME280;48480;50.252;18.848;2024-02-14T00:40:43;99197.89;;;3.26;80.45
62436;BME280;48480;50.252;18.848;2024-02-14T00:43:27;99197.07;;;3.23;80.47
62436;BME280;48480;50.252;18.848;2024-02-14T00:46:18;99196.65;;;3.27;80.42
62436;BME280;48480;50.252;18.848;2024-02-14T00:49:02;99195.52;;;3.27;80.56
62436;BME280;48480;50.252;18.848;2024-02-14T00:51:47;99194.16;;;3.24;80.53
62436;BME280;48480;50.252;18.848;2024-02-14T00:54:31;99192.91;;;3.25;80.40
62436;BME280;48480;50.252;18.848;2024-02-14T00:57:15;99192.25;;;3.33;80.17
62436;BME280;48480;50.252;18.848;2024-02-14T01:00:02;99191.48;;;3.36;79.99
62436;BME280;48480;50.252;18.848;2024-02-14T01:02:48;99191.92;;;3.42;79.63
62436;BME280;48480;50.252;18.848;2024-02-14T01:05:32;99193.96;;;3.41;79.52
62436;BME280;48480;50.252;18.848;2024-02-14T01:08:16;99186.41;;;3.31;79.36
62436;BME280;48480;50.252;18.848;2024-02-14T01:11:01;99182.02;;;3.18;79.48
62436;BME280;48480;50.252;18.848;2024-02-14T01:13:44;99181.45;;;3.06;79.55
62436;BME280;48480;50.252;18.848;2024-02-14T01:16:29;99176.22;;;2.94;79.88
62436;BME280;48480;50.252;18.848;2024-02-14T01:19:14;99172.98;;;2.83;80.30
62436;BME280;48480;50.252;18.848;2024-02-14T01:21:58;99169.95;;;2.74;80.48
62436;BME280;48480;50.252;18.848;2024-02-14T01:24:43;99170.08;;;2.67;80.63
62436;BME280;48480;50.252;18.848;2024-02-14T01:27:27;99167.52;;;2.62;80.64
62436;BME280;48480;50.252;18.848;2024-02-14T01:30:12;99164.54;;;2.57;80.69
62436;BME280;48480;50.252;18.848;2024-02-14T01:32:56;99167.60;;;2.57;80.84
62436;BME280;48480;50.252;18.848;2024-02-14T01:35:40;99171.58;;;2.61;81.10
62436;BME280;48480;50.252;18.848;2024-02-14T01:38:27;99146.98;;;2.58;81.17
62436;BME280;48480;50.252;18.848;2024-02-14T01:41:11;99166.17;;;2.78;81.17
62436;BME280;48480;50.252;18.848;2024-02-14T01:43:55;99164.45;;;2.85;81.07
62436;BME280;48480;50.252;18.848;2024-02-14T01:46:39;99169.63;;;2.86;81.17
62436;BME280;48480;50.252;18.848;2024-02-14T01:49:23;99170.17;;;2.85;81.28
62436;BME280;48480;50.252;18.848;2024-02-14T01:52:08;99167.80;;;2.85;81.55
62436;BME280;48480;50.252;18.848;2024-02-14T01:54:54;99168.29;;;2.82;81.86
62436;BME280;48480;50.252;18.848;2024-02-14T01:57:39;99165.41;;;2.80;81.89
62436;BME280;48480;50.252;18.848;2024-02-14T02:00:23;99162.70;;;2.79;82.08
62436;BME280;48480;50.252;18.848;2024-02-14T02:03:09;99162.95;;;2.82;82.25
62436;BME280;48480;50.252;18.848;2024-02-14T02:05:55;99163.73;;;2.87;82.03
62436;BME280;48480;50.252;18.848;2024-02-14T02:08:39;99167.80;;;2.95;82.01
62436;BME280;48480;50.252;18.848;2024-02-14T02:11:24;99164.61;;;3.02;81.92
62436;BME280;48480;50.252;18.848;2024-02-14T02:14:09;99165.33;;;3.09;81.85
62436;BME280;48480;50.252;18.848;2024-02-14T02:16:53;99163.83;;;3.14;82.00
62436;BME280;48480;50.252;18.848;2024-02-14T02:19:37;99165.48;;;3.19;81.98
62436;BME280;48480;50.252;18.848;2024-02-14T02:22:22;99167.77;;;3.21;82.25
62436;BME280;48480;50.252;18.848;2024-02-14T02:25:06;99168.61;;;3.19;82.21
62436;BME280;48480;50.252;18.848;2024-02-14T02:27:51;99166.41;;;3.18;82.43
62436;BME280;48480;50.252;18.848;2024-02-14T02:30:36;99161.95;;;3.21;82.40
62436;BME280;48480;50.252;18.848;2024-02-14T02:33:22;99164.21;;;3.20;82.33
62436;BME280;48480;50.252;18.848;2024-02-14T02:36:06;99170.84;;;3.20;82.42
62436;BME280;48480;50.252;18.848;2024-02-14T02:38:51;99172.45;;;3.21;82.39
62436;BME280;48480;50.252;18.848;2024-02-14T02:41:35;99170.90;;;3.20;82.48
62436;BME280;48480;50.252;18.848;2024-02-14T02:44:19;99143.95;;;3.03;82.21
62436;BME280;48480;50.252;18.848;2024-02-14T02:47:03;99177.41;;;3.29;82.08
62436;BME280;48480;50.252;18.848;2024-02-14T02:49:47;99180.41;;;3.38;81.65
62436;BME280;48480;50.252;18.848;2024-02-14T02:52:31;99180.07;;;3.41;81.41
62436;BME280;48480;50.252;18.848;2024-02-14T02:55:15;99179.70;;;3.41;81.30
62436;BME280;48480;50.252;18.848;2024-02-14T02:58:01;99179.52;;;3.40;81.22
62436;BME280;48480;50.252;18.848;2024-02-14T03:00:45;99182.78;;;3.35;81.04
62436;BME280;48480;50.252;18.848;2024-02-14T03:03:30;99185.76;;;3.27;81.16
62436;BME280;48480;50.252;18.848;2024-02-14T03:06:17;99186.34;;;3.17;80.96
62436;BME280;48480;50.252;18.848;2024-02-14T03:09:02;99187.64;;;3.05;81.40
62436;BME280;48480;50.252;18.848;2024-02-14T03:11:47;99187.71;;;3.01;81.25
62436;BME280;48480;50.252;18.848;2024-02-14T03:14:32;99188.50;;;2.96;81.24
62436;BME280;48480;50.252;18.848;2024-02-14T03:17:16;99194.97;;;2.88;81.33
62436;BME280;48480;50.252;18.848;2024-02-14T03:20:00;99192.65;;;2.81;81.30
62436;BME280;48480;50.252;18.848;2024-02-14T03:22:44;99196.66;;;2.80;81.04
62436;BME280;48480;50.252;18.848;2024-02-14T03:25:29;99201.48;;;2.78;80.94
62436;BME280;48480;50.252;18.848;2024-02-14T03:28:13;99202.43;;;2.79;80.69
62436;BME280;48480;50.252;18.848;2024-02-14T03:30:58;99198.55;;;2.77;80.44
62436;BME280;48480;50.252;18.848;2024-02-14T03:33:42;99200.67;;;2.69;80.36
62436;BME280;48480;50.252;18.848;2024-02-14T03:36:28;99205.46;;;2.59;80.53
62436;BME280;48480;50.252;18.848;2024-02-14T03:39:14;99207.11;;;2.48;80.54
62436;BME280;48480;50.252;18.848;2024-02-14T03:42:10;99208.71;;;2.37;80.42
62436;BME280;48480;50.252;18.848;2024-02-14T03:44:54;99208.45;;;2.27;80.72
62436;BME280;48480;50.252;18.848;2024-02-14T03:47:43;99210.14;;;2.22;80.83
62436;BME280;48480;50.252;18.848;2024-02-14T03:50:28;99207.91;;;2.20;80.74
62436;BME280;48480;50.252;18.848;2024-02-14T03:53:12;99212.02;;;2.17;80.86
62436;BME280;48480;50.252;18.848;2024-02-14T03:55:58;99211.08;;;2.12;80.70
62436;BME280;48480;50.252;18.848;2024-02-14T03:58:42;99217.80;;;2.05;80.79
62436;BME280;48480;50.252;18.848;2024-02-14T04:01:27;99216.30;;;1.97;80.96
62436;BME280;48480;50.252;18.848;2024-02-14T04:04:11;99217.13;;;1.92;80.91
62436;BME280;48480;50.252;18.848;2024-02-14T04:06:55;99219.09;;;1.93;80.72
62436;BME280;48480;50.252;18.848;2024-02-14T04:09:40;99217.88;;;1.97;80.87
62436;BME280;48480;50.252;18.848;2024-02-14T04:12:24;99217.75;;;1.99;80.83
62436;BME280;48480;50.252;18.848;2024-02-14T04:15:08;99219.30;;;2.00;80.98
62436;BME280;48480;50.252;18.848;2024-02-14T04:17:53;99220.67;;;1.99;80.92
62436;BME280;48480;50.252;18.848;2024-02-14T04:20:37;99222.75;;;1.96;80.51
62436;BME280;48480;50.252;18.848;2024-02-14T04:23:22;99223.23;;;1.90;80.45
62436;BME280;48480;50.252;18.848;2024-02-14T04:26:07;99220.04;;;1.83;80.29
62436;BME280;48480;50.252;18.848;2024-02-14T04:28:56;99221.79;;;1.74;80.55
62436;BME280;48480;50.252;18.848;2024-02-14T04:31:41;99228.18;;;1.68;80.59
62436;BME280;48480;50.252;18.848;2024-02-14T04:34:27;99232.85;;;1.59;80.89
62436;BME280;48480;50.252;18.848;2024-02-14T04:37:11;99234.25;;;1.51;81.16
62436;BME280;48480;50.252;18.848;2024-02-14T04:39:57;99232.31;;;1.47;81.23
62436;BME280;48480;50.252;18.848;2024-02-14T04:42:41;99233.90;;;1.50;80.78
62436;BME280;48480;50.252;18.848;2024-02-14T04:45:26;99233.39;;;1.57;80.48
62436;BME280;48480;50.252;18.848;2024-02-14T04:48:11;99227.44;;;1.61;80.30
62436;BME280;48480;50.252;18.848;2024-02-14T04:50:55;99228.41;;;1.65;80.21
62436;BME280;48480;50.252;18.848;2024-02-14T04:53:39;99227.89;;;1.65;80.17
62436;BME280;48480;50.252;18.848;2024-02-14T04:56:23;99227.93;;;1.63;80.23
62436;BME280;48480;50.252;18.848;2024-02-14T04:59:07;99226.23;;;1.56;80.32
62436;BME280;48480;50.252;18.848;2024-02-14T05:01:52;99225.40;;;1.50;80.61
62436;BME280;48480;50.252;18.848;2024-02-14T05:04:38;99223.64;;;1.41;80.50
62436;BME280;48480;50.252;18.848;2024-02-14T05:07:23;99223.97;;;1.36;81.12
62436;BME280;48480;50.252;18.848;2024-02-14T05:10:07;99222.66;;;1.34;81.08
62436;BME280;48480;50.252;18.848;2024-02-14T05:12:52;99222.85;;;1.32;81.18
62436;BME280;48480;50.252;18.848;2024-02-14T05:15:36;99225.41;;;1.31;81.11
62436;BME280;48480;50.252;18.848;2024-02-14T05:18:20;99228.64;;;1.26;81.06
62436;BME280;48480;50.252;18.848;2024-02-14T05:21:06;99229.16;;;1.20;81.20
62436;BME280;48480;50.252;18.848;2024-02-14T05:23:50;99229.00;;;1.20;81.23
62436;BME280;48480;50.252;18.848;2024-02-14T05:26:35;99225.11;;;1.24;81.55
62436;BME280;48480;50.252;18.848;2024-02-14T05:29:19;99222.19;;;1.29;82.36
62436;BME280;48480;50.252;18.848;2024-02-14T05:32:05;99220.34;;;1.31;82.41
62436;BME280;48480;50.252;18.848;2024-02-14T05:34:50;99222.08;;;1.42;83.05
62436;BME280;48480;50.252;18.848;2024-02-14T05:37:34;99224.35;;;1.45;82.87
62436;BME280;48480;50.252;18.848;2024-02-14T05:40:21;99226.48;;;1.46;83.30
62436;BME280;48480;50.252;18.848;2024-02-14T05:43:05;99226.79;;;1.43;82.82
62436;BME280;48480;50.252;18.848;2024-02-14T05:45:51;99230.14;;;1.38;82.74
62436;BME280;48480;50.252;18.848;2024-02-14T05:48:34;99234.34;;;1.33;82.65
62436;BME280;48480;50.252;18.848;2024-02-14T05:51:19;99231.58;;;1.27;82.31
62436;BME280;48480;50.252;18.848;2024-02-14T05:54:04;99227.43;;;1.18;82.27
62436;BME280;48480;50.252;18.848;2024-02-14T05:56:48;99231.81;;;1.12;82.55
62436;BME280;48480;50.252;18.848;2024-02-14T05:59:33;99231.70;;;1.09;82.51
62436;BME280;48480;50.252;18.848;2024-02-14T06:02:18;99236.97;;;1.08;82.67
62436;BME280;48480;50.252;18.848;2024-02-14T06:05:03;99243.13;;;1.10;82.77
62436;BME280;48480;50.252;18.848;2024-02-14T06:07:47;99241.86;;;1.15;82.63
62436;BME280;48480;50.252;18.848;2024-02-14T06:10:32;99243.06;;;1.24;82.59
62436;BME280;48480;50.252;18.848;2024-02-14T06:13:19;99241.41;;;1.30;82.40
62436;BME280;48480;50.252;18.848;2024-02-14T06:16:03;99243.52;;;1.36;82.37
62436;BME280;48480;50.252;18.848;2024-02-14T06:18:48;99248.55;;;1.39;82.22
62436;BME280;48480;50.252;18.848;2024-02-14T06:21:32;99253.20;;;1.38;82.19
62436;BME280;48480;50.252;18.848;2024-02-14T06:24:16;99255.08;;;1.37;82.13
62436;BME280;48480;50.252;18.848;2024-02-14T06:27:06;99252.98;;;1.30;82.14
62436;BME280;48480;50.252;18.848;2024-02-14T06:29:50;99258.71;;;1.33;82.23
62436;BME280;48480;50.252;18.848;2024-02-14T06:32:35;99258.29;;;1.33;82.28
62436;BME280;48480;50.252;18.848;2024-02-14T06:35:19;99257.17;;;1.33;82.15
62436;BME280;48480;50.252;18.848;2024-02-14T06:38:05;99255.38;;;1.31;82.23
62436;BME280;48480;50.252;18.848;2024-02-14T06:40:51;99259.56;;;1.37;82.56
62436;BME280;48480;50.252;18.848;2024-02-14T06:43:35;99260.54;;;1.49;83.11
62436;BME280;48480;50.252;18.848;2024-02-14T06:46:23;99256.38;;;1.65;82.97
62436;BME280;48480;50.252;18.848;2024-02-14T06:49:07;99258.13;;;1.81;82.78
62436;BME280;48480;50.252;18.848;2024-02-14T06:51:51;99260.89;;;1.92;82.45
62436;BME280;48480;50.252;18.848;2024-02-14T06:54:35;99263.06;;;2.00;82.19
62436;BME280;48480;50.252;18.848;2024-02-14T06:57:20;99266.83;;;2.03;82.32
62436;BME280;48480;50.252;18.848;2024-02-14T07:00:04;99263.02;;;2.09;82.48
62436;BME280;48480;50.252;18.848;2024-02-14T07:02:52;99260.67;;;2.15;82.32
62436;BME280;48480;50.252;18.848;2024-02-14T07:05:42;99264.55;;;2.22;82.47
62436;BME280;48480;50.252;18.848;2024-02-14T07:08:27;99263.99;;;2.27;82.30
62436;BME280;48480;50.252;18.848;2024-02-14T07:11:12;99270.43;;;2.33;82.57
62436;BME280;48480;50.252;18.848;2024-02-14T07:13:56;99270.91;;;2.43;83.33
62436;BME280;48480;50.252;18.848;2024-02-14T07:16:41;99265.58;;;2.62;83.18
62436;BME280;48480;50.252;18.848;2024-02-14T07:19:26;99263.19;;;2.81;83.00
62436;BME280;48480;50.252;18.848;2024-02-14T07:22:10;99267.14;;;2.95;82.53
62436;BME280;48480;50.252;18.848;2024-02-14T07:24:54;99268.94;;;3.06;82.77
62436;BME280;48480;50.252;18.848;2024-02-14T07:27:40;99262.28;;;3.17;82.97
62436;BME280;48480;50.252;18.848;2024-02-14T07:30:24;99259.54;;;3.27;82.75
62436;BME280;48480;50.252;18.848;2024-02-14T07:33:10;99258.98;;;3.39;82.86
62436;BME280;48480;50.252;18.848;2024-02-14T07:35:54;99260.23;;;3.60;82.64
62436;BME280;48480;50.252;18.848;2024-02-14T07:38:38;99261.09;;;3.90;82.57
62436;BME280;48480;50.252;18.848;2024-02-14T07:41:22;99262.91;;;4.28;81.92
62436;BME280;48480;50.252;18.848;2024-02-14T07:44:07;99263.12;;;4.76;81.10
62436;BME280;48480;50.252;18.848;2024-02-14T07:46:52;99261.00;;;5.36;79.70
62436;BME280;48480;50.252;18.848;2024-02-14T07:49:41;99261.96;;;5.98;77.91
62436;BME280;48480;50.252;18.848;2024-02-14T07:52:25;99263.98;;;6.56;76.44
62436;BME280;48480;50.252;18.848;2024-02-14T07:55:11;99264.98;;;7.08;75.17
62436;BME280;48480;50.252;18.848;2024-02-14T07:57:56;99271.08;;;7.56;73.67
62436;BME280;48480;50.252;18.848;2024-02-14T08:00:40;99269.35;;;7.96;72.16
62436;BME280;48480;50.252;18.848;2024-02-14T08:03:25;99274.73;;;8.33;70.97
62436;BME280;48480;50.252;18.848;2024-02-14T08:06:10;99272.50;;;8.60;69.48
62436;BME280;48480;50.252;18.848;2024-02-14T08:08:54;99273.73;;;8.86;68.43
62436;BME280;48480;50.252;18.848;2024-02-14T08:11:43;99271.78;;;9.09;67.53
62436;BME280;48480;50.252;18.848;2024-02-14T08:14:28;99277.25;;;9.31;66.77
62436;BME280;48480;50.252;18.848;2024-02-14T08:17:13;99282.64;;;9.58;66.03
62436;BME280;48480;50.252;18.848;2024-02-14T08:19:57;99283.38;;;9.83;65.09
62436;BME280;48480;50.252;18.848;2024-02-14T08:22:41;99278.81;;;10.08;64.40
62436;BME280;48480;50.252;18.848;2024-02-14T08:25:26;99280.56;;;10.39;63.24
62436;BME280;48480;50.252;18.848;2024-02-14T08:28:11;99288.27;;;10.56;61.75
62436;BME280;48480;50.252;18.848;2024-02-14T08:30:56;99290.30;;;10.63;61.14
62436;BME280;48480;50.252;18.848;2024-02-14T08:33:40;99294.02;;;10.74;60.55
62436;BME280;48480;50.252;18.848;2024-02-14T08:36:25;99284.82;;;10.75;60.10
62436;BME280;48480;50.252;18.848;2024-02-14T08:39:09;99294.12;;;10.89;59.80
62436;BME280;48480;50.252;18.848;2024-02-14T08:41:54;99287.67;;;10.96;59.53
62436;BME280;48480;50.252;18.848;2024-02-14T08:44:38;99287.23;;;11.11;58.88
62436;BME280;48480;50.252;18.848;2024-02-14T08:47:22;99284.84;;;11.04;57.90
62436;BME280;48480;50.252;18.848;2024-02-14T08:50:07;99277.17;;;10.98;58.14
62436;BME280;48480;50.252;18.848;2024-02-14T08:52:52;99272.95;;;10.96;57.75
62436;BME280;48480;50.252;18.848;2024-02-14T08:55:36;99275.85;;;11.00;57.51
62436;BME280;48480;50.252;18.848;2024-02-14T08:58:21;99275.02;;;11.21;56.87
62436;BME280;48480;50.252;18.848;2024-02-14T09:01:05;99274.16;;;11.36;56.16
62436;BME280;48480;50.252;18.848;2024-02-14T09:03:51;99271.94;;;11.53;55.26
62436;BME280;48480;50.252;18.848;2024-02-14T09:06:36;99269.95;;;11.60;54.67
62436;BME280;48480;50.252;18.848;2024-02-14T09:09:21;99271.46;;;11.67;54.30
62436;BME280;48480;50.252;18.848;2024-02-14T09:12:05;99270.59;;;11.80;53.73
62436;BME280;48480;50.252;18.848;2024-02-14T09:14:50;99274.38;;;11.95;53.38
62436;BME280;48480;50.252;18.848;2024-02-14T09:17:35;99275.84;;;12.11;52.71
62436;BME280;48480;50.252;18.848;2024-02-14T09:20:19;99261.45;;;12.21;51.89
62436;BME280;48480;50.252;18.848;2024-02-14T09:23:04;99269.84;;;12.26;51.38
62436;BME280;48480;50.252;18.848;2024-02-14T09:25:49;99270.53;;;12.32;51.29
62436;BME280;48480;50.252;18.848;2024-02-14T09:28:33;99271.95;;;12.36;49.95
62436;BME280;48480;50.252;18.848;2024-02-14T09:31:19;99273.89;;;12.36;49.64
62436;BME280;48480;50.252;18.848;2024-02-14T09:34:06;99272.17;;;12.31;49.34
62436;BME280;48480;50.252;18.848;2024-02-14T09:36:52;99270.69;;;12.31;49.48
62436;BME280;48480;50.252;18.848;2024-02-14T09:39:37;99274.60;;;12.28;48.70
62436;BME280;48480;50.252;18.848;2024-02-14T09:42:37;99268.66;;;12.30;48.40
62436;BME280;48480;50.252;18.848;2024-02-14T09:45:27;99266.29;;;12.30;48.03
62436;BME280;48480;50.252;18.848;2024-02-14T09:48:12;99267.29;;;12.20;47.74
62436;BME280;48480;50.252;18.848;2024-02-14T09:50:57;99268.23;;;12.17;47.81
62436;BME280;48480;50.252;18.848;2024-02-14T09:53:42;99272.48;;;12.08;47.18
62436;BME280;48480;50.252;18.848;2024-02-14T09:56:28;99269.08;;;11.93;47.07
62436;BME280;48480;50.252;18.848;2024-02-14T09:59:13;99270.44;;;11.90;47.34
62436;BME280;48480;50.252;18.848;2024-02-14T10:02:00;99267.18;;;11.96;47.53
62436;BME280;48480;50.252;18.848;2024-02-14T10:04:44;99264.42;;;12.04;47.65
62436;BME280;48480;50.252;18.848;2024-02-14T10:07:31;99263.83;;;12.09;47.44
62436;BME280;48480;50.252;18.848;2024-02-14T10:10:24;99260.27;;;12.16;47.72
62436;BME280;48480;50.252;18.848;2024-02-14T10:13:08;99256.52;;;12.22;47.66
62436;BME280;48480;50.252;18.848;2024-02-14T10:15:53;99257.02;;;12.21;46.75
62436;BME280;48480;50.252;18.848;2024-02-14T10:18:39;99250.77;;;12.14;46.68
62436;BME280;48480;50.252;18.848;2024-02-14T10:21:23;99251.52;;;12.08;46.47
62436;BME280;48480;50.252;18.848;2024-02-14T10:24:09;99244.85;;;12.13;46.47
62436;BME280;48480;50.252;18.848;2024-02-14T10:27:00;99240.52;;;12.17;46.55
62436;BME280;48480;50.252;18.848;2024-02-14T10:29:44;99239.77;;;12.15;46.36
62436;BME280;48480;50.252;18.848;2024-02-14T10:32:28;99238.95;;;12.12;46.42
62436;BME280;48480;50.252;18.848;2024-02-14T10:35:12;99241.23;;;12.16;46.44
62436;BME280;48480;50.252;18.848;2024-02-14T10:37:58;99233.20;;;12.13;46.41
62436;BME280;48480;50.252;18.848;2024-02-14T10:40:47;99230.73;;;12.07;46.38
62436;BME280;48480;50.252;18.848;2024-02-14T10:43:31;99224.45;;;11.98;45.97
62436;BME280;48480;50.252;18.848;2024-02-14T10:46:25;99224.86;;;12.01;46.25
62436;BME280;48480;50.252;18.848;2024-02-14T10:49:16;99222.36;;;12.03;46.37
62436;BME280;48480;50.252;18.848;2024-02-14T10:52:02;99217.46;;;12.00;46.29
62436;BME280;48480;50.252;18.848;2024-02-14T10:54:52;99214.31;;;12.03;46.16
62436;BME280;48480;50.252;18.848;2024-02-14T10:57:43;99214.08;;;12.16;46.24
62436;BME280;48480;50.252;18.848;2024-02-14T11:00:33;99215.53;;;12.26;46.17
62436;BME280;48480;50.252;18.848;2024-02-14T11:03:18;99211.23;;;12.06;45.71
62436;BME280;48480;50.252;18.848;2024-02-14T11:06:03;99209.59;;;11.82;45.97
62436;BME280;48480;50.252;18.848;2024-02-14T11:09:03;99209.36;;;11.56;45.79
62436;BME280;48480;50.252;18.848;2024-02-14T11:12:00;99208.50;;;11.31;46.14
62436;BME280;48480;50.252;18.848;2024-02-14T11:14:44;99209.67;;;11.14;46.69
62436;BME280;48480;50.252;18.848;2024-02-14T11:17:29;99208.75;;;11.01;46.81
62436;BME280;48480;50.252;18.848;2024-02-14T11:20:16;99207.05;;;11.00;46.92
62436;BME280;48480;50.252;18.848;2024-02-14T11:23:05;99198.83;;;11.09;46.83
62436;BME280;48480;50.252;18.848;2024-02-14T11:25:50;99195.04;;;11.16;47.27
62436;BME280;48480;50.252;18.848;2024-02-14T11:28:37;99190.08;;;11.21;47.26
62436;BME280;48480;50.252;18.848;2024-02-14T11:31:33;99192.42;;;11.24;47.03
62436;BME280;48480;50.252;18.848;2024-02-14T11:34:19;99181.67;;;11.23;47.03
62436;BME280;48480;50.252;18.848;2024-02-14T11:37:04;99184.69;;;11.22;46.98
62436;BME280;48480;50.252;18.848;2024-02-14T11:39:50;99185.33;;;11.18;46.93
62436;BME280;48480;50.252;18.848;2024-02-14T11:42:34;99181.24;;;11.15;46.78
62436;BME280;48480;50.252;18.848;2024-02-14T11:45:19;99177.80;;;11.18;46.27
62436;BME280;48480;50.252;18.848;2024-02-14T11:48:04;99175.67;;;11.24;46.64
62436;BME280;48480;50.252;18.848;2024-02-14T11:50:49;99169.20;;;11.28;46.60
62436;BME280;48480;50.252;18.848;2024-02-14T11:53:35;99168.31;;;11.24;46.61
62436;BME280;48480;50.252;18.848;2024-02-14T11:56:26;99166.69;;;11.15;46.76
62436;BME280;48480;50.252;18.848;2024-02-14T11:59:10;99165.87;;;11.03;46.92
62436;BME280;48480;50.252;18.848;2024-02-14T12:01:55;99157.55;;;10.85;47.18
62436;BME280;48480;50.252;18.848;2024-02-14T12:04:44;99156.34;;;10.73;47.34
62436;BME280;48480;50.252;18.848;2024-02-14T12:07:29;99156.13;;;10.62;47.61
62436;BME280;48480;50.252;18.848;2024-02-14T12:10:13;99154.38;;;10.52;48.00
62436;BME280;48480;50.252;18.848;2024-02-14T12:13:04;99149.30;;;10.42;48.31
62436;BME280;48480;50.252;18.848;2024-02-14T12:15:49;99148.61;;;10.33;48.82
62436;BME280;48480;50.252;18.848;2024-02-14T12:18:34;99144.20;;;10.29;49.21
62436;BME280;48480;50.252;18.848;2024-02-14T12:21:18;99143.77;;;10.30;49.32
62436;BME280;48480;50.252;18.848;2024-02-14T12:24:04;99147.30;;;10.35;49.26
62436;BME280;48480;50.252;18.848;2024-02-14T12:26:49;99142.96;;;10.38;49.59
62436;BME280;48480;50.252;18.848;2024-02-14T12:29:36;99140.41;;;10.45;49.01
62436;BME280;48480;50.252;18.848;2024-02-14T12:32:20;99142.70;;;10.48;49.07
62436;BME280;48480;50.252;18.848;2024-02-14T12:35:07;99135.15;;;10.53;49.18
62436;BME280;48480;50.252;18.848;2024-02-14T12:37:51;99094.25;;;10.32;49.34
62436;BME280;48480;50.252;18.848;2024-02-14T12:40:36;99127.45;;;10.59;49.19
62436;BME280;48480;50.252;18.848;2024-02-14T12:43:20;99128.79;;;10.67;49.38
62436;BME280;48480;50.252;18.848;2024-02-14T12:46:05;99127.73;;;10.76;49.27
62436;BME280;48480;50.252;18.848;2024-02-14T12:48:49;99130.24;;;10.84;49.05
62436;BME280;48480;50.252;18.848;2024-02-14T12:51:34;99131.95;;;10.87;48.85
62436;BME280;48480;50.252;18.848;2024-02-14T12:54:20;99129.36;;;10.90;48.16
62436;BME280;48480;50.252;18.848;2024-02-14T12:57:04;99130.20;;;10.88;48.27
62436;BME280;48480;50.252;18.848;2024-02-14T12:59:48;99131.39;;;10.78;48.02
62436;BME280;48480;50.252;18.848;2024-02-14T13:02:32;99128.09;;;10.63;48.63
62436;BME280;48480;50.252;18.848;2024-02-14T13:05:16;99123.65;;;10.51;48.90
62436;BME280;48480;50.252;18.848;2024-02-14T13:08:00;99126.96;;;10.46;49.01
62436;BME280;48480;50.252;18.848;2024-02-14T13:10:45;99124.00;;;10.39;49.06
62436;BME280;48480;50.252;18.848;2024-02-14T13:13:29;99123.59;;;10.35;49.48
62436;BME280;48480;50.252;18.848;2024-02-14T13:16:13;99122.77;;;10.33;49.43
62436;BME280;48480;50.252;18.848;2024-02-14T13:18:57;99122.70;;;10.30;49.77
62436;BME280;48480;50.252;18.848;2024-02-14T13:21:41;99122.09;;;10.31;49.78
62436;BME280;48480;50.252;18.848;2024-02-14T13:24:29;99119.05;;;10.31;49.68
62436;BME280;48480;50.252;18.848;2024-02-14T13:27:13;99122.98;;;10.32;49.38
62436;BME280;48480;50.252;18.848;2024-02-14T13:29:58;99123.67;;;10.29;48.75
62436;BME280;48480;50.252;18.848;2024-02-14T13:32:42;99124.34;;;10.27;48.70
62436;BME280;48480;50.252;18.848;2024-02-14T13:35:27;99120.20;;;10.27;48.91
62436;BME280;48480;50.252;18.848;2024-02-14T13:38:11;99115.93;;;10.26;48.43
62436;BME280;48480;50.252;18.848;2024-02-14T13:40:56;99119.04;;;10.24;48.92
62436;BME280;48480;50.252;18.848;2024-02-14T13:43:40;99115.52;;;10.18;49.40
62436;BME280;48480;50.252;18.848;2024-02-14T13:46:25;99107.11;;;10.13;49.83
62436;BME280;48480;50.252;18.848;2024-02-14T13:49:10;99107.46;;;10.12;49.80
62436;BME280;48480;50.252;18.848;2024-02-14T13:51:58;99105.91;;;10.06;50.19
62436;BME280;48480;50.252;18.848;2024-02-14T13:54:42;99106.70;;;10.01;50.26
62436;BME280;48480;50.252;18.848;2024-02-14T13:57:26;99107.38;;;9.98;50.67
62436;BME280;48480;50.252;18.848;2024-02-14T14:00:11;99110.34;;;9.98;50.70
62436;BME280;48480;50.252;18.848;2024-02-14T14:02:58;99109.05;;;9.95;50.56
62436;BME280;48480;50.252;18.848;2024-02-14T14:05:42;99102.16;;;9.94;50.80
62436;BME280;48480;50.252;18.848;2024-02-14T14:08:33;99103.48;;;9.94;51.08
62436;BME280;48480;50.252;18.848;2024-02-14T14:11:24;99101.30;;;9.91;51.47
62436;BME280;48480;50.252;18.848;2024-02-14T14:14:17;99101.85;;;9.90;51.52
62436;BME280;48480;50.252;18.848;2024-02-14T14:17:15;99100.37;;;9.88;51.70
62436;BME280;48480;50.252;18.848;2024-02-14T14:20:02;99095.55;;;9.82;51.74
62436;BME280;48480;50.252;18.848;2024-02-14T14:22:56;99101.98;;;9.85;51.83
62436;BME280;48480;50.252;18.848;2024-02-14T14:25:49;99103.17;;;9.81;51.68
62436;BME280;48480;50.252;18.848;2024-02-14T14:28:35;99105.33;;;9.77;51.43
62436;BME280;48480;50.252;18.848;2024-02-14T14:31:20;99105.21;;;9.71;51.51